Portada
METAR-TAF:

METAR-TAF

Aeropuertos :

Carmi Municipal Airport

Carmi, Illinois, Estados Unidos

latitud: 38-05-22N, longitud: 088-07-23W, altitud: 118 m

Observación

El informe se hizo hace 22 minutos, a las 08:40 UTC
Viento 3 kt del este
Temperatura 21°C
Humedad 100%
Presión 1014 hPa
Visibilidad: 11.3 km
Cielo despejado

METAR: KCUL 060840Z AUTO 08003KT 7SM CLR 21/21 A2995 RMK AO2

Hora: 04:02 (09:02 UTC)


TAF: falta

Observaciones y pronósticos meteorológicos de más de 4000 aeropuertos (mensajes METAR y TAF).

Los puntos amarillos y rojos representan las estaciones disponibles.

Ponga el ratón en el punto deseado para ver el nombre de la estación.

Haga clic para ver las observaciones y los pronósticos meteorológicos.

Para cambiar el mapa : haga clic en los botones verdes con una cruz de color negro para hacer un zoom, en el botón verde con un guión para alejar o en las flechas verdes para mapas adyacentes.


METAR-TAF: